sensor_id;sensor_type;location;lat;lon;timestamp;temperature;humidity
69589;SHT31;56792;50.644;17.984;2022-12-29T00:01:45;4.89;71.28
69589;SHT31;56792;50.644;17.984;2022-12-29T00:04:18;4.92;71.29
69589;SHT31;56792;50.644;17.984;2022-12-29T00:06:51;4.94;71.11
69589;SHT31;56792;50.644;17.984;2022-12-29T00:09:25;4.96;71.17
69589;SHT31;56792;50.644;17.984;2022-12-29T00:11:57;4.99;71.18
69589;SHT31;56792;50.644;17.984;2022-12-29T00:14:31;5.01;71.23
69589;SHT31;56792;50.644;17.984;2022-12-29T00:17:20;5.05;71.17
69589;SHT31;56792;50.644;17.984;2022-12-29T00:19:53;5.06;70.92
69589;SHT31;56792;50.644;17.984;2022-12-29T00:22:42;5.07;71.02
69589;SHT31;56792;50.644;17.984;2022-12-29T00:25:32;5.08;70.87
69589;SHT31;56792;50.644;17.984;2022-12-29T00:28:23;5.09;71.00
69589;SHT31;56792;50.644;17.984;2022-12-29T00:31:12;5.11;70.98
69589;SHT31;56792;50.644;17.984;2022-12-29T00:34:16;5.11;70.72
69589;SHT31;56792;50.644;17.984;2022-12-29T00:37:05;5.10;70.75
69589;SHT31;56792;50.644;17.984;2022-12-29T00:39:37;5.09;70.78
69589;SHT31;56792;50.644;17.984;2022-12-29T00:42:27;5.08;70.68
69589;SHT31;56792;50.644;17.984;2022-12-29T00:45:16;5.07;70.80
69589;SHT31;56792;50.644;17.984;2022-12-29T00:47:48;5.08;70.71
69589;SHT31;56792;50.644;17.984;2022-12-29T00:50:20;5.09;70.80
69589;SHT31;56792;50.644;17.984;2022-12-29T00:52:53;5.10;70.68
69589;SHT31;56792;50.644;17.984;2022-12-29T00:55:25;5.11;70.39
69589;SHT31;56792;50.644;17.984;2022-12-29T00:57:57;5.13;70.14
69589;SHT31;56792;50.644;17.984;2022-12-29T01:00:30;5.17;70.06
69589;SHT31;56792;50.644;17.984;2022-12-29T01:03:02;5.19;69.94
69589;SHT31;56792;50.644;17.984;2022-12-29T01:05:37;5.22;69.95
69589;SHT31;56792;50.644;17.984;2022-12-29T01:08:09;5.24;69.99
69589;SHT31;56792;50.644;17.984;2022-12-29T01:10:41;5.25;69.87
69589;SHT31;56792;50.644;17.984;2022-12-29T01:13:14;5.28;69.79
69589;SHT31;56792;50.644;17.984;2022-12-29T01:15:50;5.27;69.61
69589;SHT31;56792;50.644;17.984;2022-12-29T01:18:23;5.30;69.35
69589;SHT31;56792;50.644;17.984;2022-12-29T01:20:59;5.30;69.32
69589;SHT31;56792;50.644;17.984;2022-12-29T01:23:34;5.30;69.36
69589;SHT31;56792;50.644;17.984;2022-12-29T01:26:10;5.30;69.22
69589;SHT31;56792;50.644;17.984;2022-12-29T01:28:45;5.30;69.25
69589;SHT31;56792;50.644;17.984;2022-12-29T01:31:17;5.28;69.11
69589;SHT31;56792;50.644;17.984;2022-12-29T01:33:50;5.27;68.98
69589;SHT31;56792;50.644;17.984;2022-12-29T01:36:22;5.25;69.05
69589;SHT31;56792;50.644;17.984;2022-12-29T01:38:55;5.22;69.23
69589;SHT31;56792;50.644;17.984;2022-12-29T01:41:28;5.18;69.30
69589;SHT31;56792;50.644;17.984;2022-12-29T01:44:02;5.16;69.33
69589;SHT31;56792;50.644;17.984;2022-12-29T01:47:04;5.13;69.37
69589;SHT31;56792;50.644;17.984;2022-12-29T01:49:38;5.11;69.49
69589;SHT31;56792;50.644;17.984;2022-12-29T01:52:10;5.09;69.52
69589;SHT31;56792;50.644;17.984;2022-12-29T01:54:46;5.08;69.60
69589;SHT31;56792;50.644;17.984;2022-12-29T01:57:23;5.07;69.49
69589;SHT31;56792;50.644;17.984;2022-12-29T02:00:02;5.07;69.53
69589;SHT31;56792;50.644;17.984;2022-12-29T02:02:40;5.06;69.59
69589;SHT31;56792;50.644;17.984;2022-12-29T02:05:21;5.07;69.66
69589;SHT31;56792;50.644;17.984;2022-12-29T02:08:00;5.07;69.66
69589;SHT31;56792;50.644;17.984;2022-12-29T02:10:35;5.09;69.47
69589;SHT31;56792;50.644;17.984;2022-12-29T02:13:10;5.10;69.41
69589;SHT31;56792;50.644;17.984;2022-12-29T02:15:48;5.10;69.46
69589;SHT31;56792;50.644;17.984;2022-12-29T02:18:45;5.10;69.51
69589;SHT31;56792;50.644;17.984;2022-12-29T02:21:34;5.10;69.47
69589;SHT31;56792;50.644;17.984;2022-12-29T02:24:32;5.09;69.50
69589;SHT31;56792;50.644;17.984;2022-12-29T02:30:38;5.08;69.31
69589;SHT31;56792;50.644;17.984;2022-12-29T02:33:25;5.05;69.35
69589;SHT31;56792;50.644;17.984;2022-12-29T02:36:14;5.04;69.29
69589;SHT31;56792;50.644;17.984;2022-12-29T02:39:04;5.03;69.37
69589;SHT31;56792;50.644;17.984;2022-12-29T02:41:50;5.02;69.42
69589;SHT31;56792;50.644;17.984;2022-12-29T02:44:36;5.00;69.28
69589;SHT31;56792;50.644;17.984;2022-12-29T02:47:22;4.99;69.39
69589;SHT31;56792;50.644;17.984;2022-12-29T02:50:06;4.96;69.32
69589;SHT31;56792;50.644;17.984;2022-12-29T02:52:46;4.94;69.40
69589;SHT31;56792;50.644;17.984;2022-12-29T02:55:23;4.91;69.50
69589;SHT31;56792;50.644;17.984;2022-12-29T02:58:11;4.87;69.65
69589;SHT31;56792;50.644;17.984;2022-12-29T03:00:54;4.85;69.66
69589;SHT31;56792;50.644;17.984;2022-12-29T03:03:44;4.84;69.81
69589;SHT31;56792;50.644;17.984;2022-12-29T03:06:33;4.81;69.93
69589;SHT31;56792;50.644;17.984;2022-12-29T03:09:20;4.80;69.90
69589;SHT31;56792;50.644;17.984;2022-12-29T03:12:07;4.80;69.91
69589;SHT31;56792;50.644;17.984;2022-12-29T03:15:07;4.79;69.93
69589;SHT31;56792;50.644;17.984;2022-12-29T03:18:09;4.80;69.97
69589;SHT31;56792;50.644;17.984;2022-12-29T03:20:49;4.79;69.85
69589;SHT31;56792;50.644;17.984;2022-12-29T03:23:28;4.80;69.87
69589;SHT31;56792;50.644;17.984;2022-12-29T03:26:04;4.81;69.77
69589;SHT31;56792;50.644;17.984;2022-12-29T03:28:40;4.82;69.83
69589;SHT31;56792;50.644;17.984;2022-12-29T03:31:20;4.81;69.62
69589;SHT31;56792;50.644;17.984;2022-12-29T03:33:54;4.80;69.66
69589;SHT31;56792;50.644;17.984;2022-12-29T03:36:32;4.76;69.82
69589;SHT31;56792;50.644;17.984;2022-12-29T03:39:15;4.72;69.90
69589;SHT31;56792;50.644;17.984;2022-12-29T03:41:53;4.69;70.03
69589;SHT31;56792;50.644;17.984;2022-12-29T03:44:34;4.66;70.09
69589;SHT31;56792;50.644;17.984;2022-12-29T03:47:11;4.62;70.19
69589;SHT31;56792;50.644;17.984;2022-12-29T03:49:45;4.59;70.23
69589;SHT31;56792;50.644;17.984;2022-12-29T03:52:18;4.59;70.25
69589;SHT31;56792;50.644;17.984;2022-12-29T03:54:52;4.56;70.31
69589;SHT31;56792;50.644;17.984;2022-12-29T03:57:25;4.54;70.39
69589;SHT31;56792;50.644;17.984;2022-12-29T04:00:00;4.52;70.32
69589;SHT31;56792;50.644;17.984;2022-12-29T04:02:41;4.51;70.26
69589;SHT31;56792;50.644;17.984;2022-12-29T04:05:19;4.49;70.33
69589;SHT31;56792;50.644;17.984;2022-12-29T04:07:54;4.48;70.15
69589;SHT31;56792;50.644;17.984;2022-12-29T04:10:26;4.49;70.03
69589;SHT31;56792;50.644;17.984;2022-12-29T04:13:01;4.47;70.07
69589;SHT31;56792;50.644;17.984;2022-12-29T04:15:33;4.46;69.99
69589;SHT31;56792;50.644;17.984;2022-12-29T04:18:05;4.46;70.04
69589;SHT31;56792;50.644;17.984;2022-12-29T04:20:38;4.46;70.10
69589;SHT31;56792;50.644;17.984;2022-12-29T04:23:32;4.50;69.88
69589;SHT31;56792;50.644;17.984;2022-12-29T04:26:10;4.54;69.75
69589;SHT31;56792;50.644;17.984;2022-12-29T04:28:54;4.57;69.75
69589;SHT31;56792;50.644;17.984;2022-12-29T04:31:45;4.59;69.59
69589;SHT31;56792;50.644;17.984;2022-12-29T04:34:18;4.60;69.63
69589;SHT31;56792;50.644;17.984;2022-12-29T04:36:50;4.59;69.64
69589;SHT31;56792;50.644;17.984;2022-12-29T04:39:23;4.59;69.58
69589;SHT31;56792;50.644;17.984;2022-12-29T04:41:55;4.59;69.72
69589;SHT31;56792;50.644;17.984;2022-12-29T04:44:28;4.59;69.73
69589;SHT31;56792;50.644;17.984;2022-12-29T04:47:23;4.58;69.74
69589;SHT31;56792;50.644;17.984;2022-12-29T04:50:13;4.59;69.74
69589;SHT31;56792;50.644;17.984;2022-12-29T04:52:56;4.61;69.66
69589;SHT31;56792;50.644;17.984;2022-12-29T04:55:28;4.62;69.57
69589;SHT31;56792;50.644;17.984;2022-12-29T04:58:01;4.62;69.44
69589;SHT31;56792;50.644;17.984;2022-12-29T05:00:34;4.63;69.26
69589;SHT31;56792;50.644;17.984;2022-12-29T05:03:06;4.64;69.14
69589;SHT31;56792;50.644;17.984;2022-12-29T05:05:40;4.66;69.12
69589;SHT31;56792;50.644;17.984;2022-12-29T05:08:13;4.66;68.95
69589;SHT31;56792;50.644;17.984;2022-12-29T05:10:46;4.67;69.01
69589;SHT31;56792;50.644;17.984;2022-12-29T05:13:20;4.70;69.00
69589;SHT31;56792;50.644;17.984;2022-12-29T05:15:53;4.72;69.01
69589;SHT31;56792;50.644;17.984;2022-12-29T05:18:26;4.73;69.01
69589;SHT31;56792;50.644;17.984;2022-12-29T05:20:59;4.75;68.96
69589;SHT31;56792;50.644;17.984;2022-12-29T05:23:31;4.77;69.08
69589;SHT31;56792;50.644;17.984;2022-12-29T05:26:06;4.77;68.99
69589;SHT31;56792;50.644;17.984;2022-12-29T05:28:56;4.78;69.03
69589;SHT31;56792;50.644;17.984;2022-12-29T05:31:29;4.77;69.02
69589;SHT31;56792;50.644;17.984;2022-12-29T05:34:03;4.78;69.03
69589;SHT31;56792;50.644;17.984;2022-12-29T05:36:35;4.78;69.01
69589;SHT31;56792;50.644;17.984;2022-12-29T05:39:21;4.78;69.27
69589;SHT31;56792;50.644;17.984;2022-12-29T05:41:57;4.78;69.32
69589;SHT31;56792;50.644;17.984;2022-12-29T05:44:49;4.78;69.32
69589;SHT31;56792;50.644;17.984;2022-12-29T05:47:35;4.79;69.29
69589;SHT31;56792;50.644;17.984;2022-12-29T05:50:29;4.79;69.32
69589;SHT31;56792;50.644;17.984;2022-12-29T05:53:22;4.80;69.38
69589;SHT31;56792;50.644;17.984;2022-12-29T05:55:56;4.80;69.41
69589;SHT31;56792;50.644;17.984;2022-12-29T05:58:28;4.80;69.50
69589;SHT31;56792;50.644;17.984;2022-12-29T06:01:00;4.80;69.60
69589;SHT31;56792;50.644;17.984;2022-12-29T06:03:33;4.80;69.64
69589;SHT31;56792;50.644;17.984;2022-12-29T06:06:05;4.80;69.68
69589;SHT31;56792;50.644;17.984;2022-12-29T06:08:38;4.81;69.62
69589;SHT31;56792;50.644;17.984;2022-12-29T06:11:10;4.83;69.58
69589;SHT31;56792;50.644;17.984;2022-12-29T06:13:49;4.86;69.58
69589;SHT31;56792;50.644;17.984;2022-12-29T06:16:21;4.89;69.54
69589;SHT31;56792;50.644;17.984;2022-12-29T06:18:57;4.91;69.44
69589;SHT31;56792;50.644;17.984;2022-12-29T06:21:30;4.93;69.50
69589;SHT31;56792;50.644;17.984;2022-12-29T06:24:02;4.94;69.28
69589;SHT31;56792;50.644;17.984;2022-12-29T06:26:37;4.96;69.16
69589;SHT31;56792;50.644;17.984;2022-12-29T06:29:10;4.97;69.13
69589;SHT31;56792;50.644;17.984;2022-12-29T06:31:44;5.00;69.08
69589;SHT31;56792;50.644;17.984;2022-12-29T06:34:17;5.01;69.07
69589;SHT31;56792;50.644;17.984;2022-12-29T06:36:50;5.01;69.12
69589;SHT31;56792;50.644;17.984;2022-12-29T06:39:22;5.02;69.08
69589;SHT31;56792;50.644;17.984;2022-12-29T06:42:10;5.01;69.07
69589;SHT31;56792;50.644;17.984;2022-12-29T06:45:06;5.00;68.97
69589;SHT31;56792;50.644;17.984;2022-12-29T06:47:39;4.99;68.92
69589;SHT31;56792;50.644;17.984;2022-12-29T06:50:11;4.98;68.94
69589;SHT31;56792;50.644;17.984;2022-12-29T06:52:44;4.98;68.85
69589;SHT31;56792;50.644;17.984;2022-12-29T06:55:16;4.99;68.81
69589;SHT31;56792;50.644;17.984;2022-12-29T06:57:49;4.99;68.87
69589;SHT31;56792;50.644;17.984;2022-12-29T07:00:24;5.00;68.84
69589;SHT31;56792;50.644;17.984;2022-12-29T07:02:56;5.01;68.92
69589;SHT31;56792;50.644;17.984;2022-12-29T07:05:29;4.99;68.98
69589;SHT31;56792;50.644;17.984;2022-12-29T07:08:01;5.01;68.96
69589;SHT31;56792;50.644;17.984;2022-12-29T07:10:33;5.05;68.94
69589;SHT31;56792;50.644;17.984;2022-12-29T07:13:06;5.09;68.72
69589;SHT31;56792;50.644;17.984;2022-12-29T07:15:38;5.14;68.70
69589;SHT31;56792;50.644;17.984;2022-12-29T07:18:10;5.18;68.50
69589;SHT31;56792;50.644;17.984;2022-12-29T07:20:42;5.26;68.38
69589;SHT31;56792;50.644;17.984;2022-12-29T07:23:14;5.32;68.04
69589;SHT31;56792;50.644;17.984;2022-12-29T07:25:47;5.39;68.09
69589;SHT31;56792;50.644;17.984;2022-12-29T07:28:26;5.44;68.00
69589;SHT31;56792;50.644;17.984;2022-12-29T07:30:59;5.50;67.94
69589;SHT31;56792;50.644;17.984;2022-12-29T07:33:32;5.53;67.75
69589;SHT31;56792;50.644;17.984;2022-12-29T07:36:05;5.58;67.75
69589;SHT31;56792;50.644;17.984;2022-12-29T07:38:39;5.62;67.58
69589;SHT31;56792;50.644;17.984;2022-12-29T07:41:12;5.66;67.58
69589;SHT31;56792;50.644;17.984;2022-12-29T07:43:47;5.70;67.22
69589;SHT31;56792;50.644;17.984;2022-12-29T07:46:32;5.74;67.12
69589;SHT31;56792;50.644;17.984;2022-12-29T07:49:05;5.80;66.99
69589;SHT31;56792;50.644;17.984;2022-12-29T07:51:37;5.86;67.17
69589;SHT31;56792;50.644;17.984;2022-12-29T07:54:10;5.94;67.20
69589;SHT31;56792;50.644;17.984;2022-12-29T07:56:45;6.01;67.06
69589;SHT31;56792;50.644;17.984;2022-12-29T07:59:18;6.08;66.87
69589;SHT31;56792;50.644;17.984;2022-12-29T08:01:50;6.17;66.97
69589;SHT31;56792;50.644;17.984;2022-12-29T08:04:23;6.27;66.46
69589;SHT31;56792;50.644;17.984;2022-12-29T08:06:55;6.39;66.11
69589;SHT31;56792;50.644;17.984;2022-12-29T08:09:28;6.54;66.09
69589;SHT31;56792;50.644;17.984;2022-12-29T08:12:00;6.68;65.91
69589;SHT31;56792;50.644;17.984;2022-12-29T08:14:32;6.74;65.54
69589;SHT31;56792;50.644;17.984;2022-12-29T08:17:05;6.76;65.30
69589;SHT31;56792;50.644;17.984;2022-12-29T08:19:37;6.79;65.35
69589;SHT31;56792;50.644;17.984;2022-12-29T08:22:12;6.83;65.43
69589;SHT31;56792;50.644;17.984;2022-12-29T08:24:44;6.94;65.13
69589;SHT31;56792;50.644;17.984;2022-12-29T08:27:19;6.94;64.77
69589;SHT31;56792;50.644;17.984;2022-12-29T08:29:54;6.93;64.86
69589;SHT31;56792;50.644;17.984;2022-12-29T08:32:27;6.93;64.83
69589;SHT31;56792;50.644;17.984;2022-12-29T08:35:00;6.94;64.84
69589;SHT31;56792;50.644;17.984;2022-12-29T08:37:33;6.99;64.72
69589;SHT31;56792;50.644;17.984;2022-12-29T08:40:07;7.02;64.55
69589;SHT31;56792;50.644;17.984;2022-12-29T08:42:42;7.05;64.52
69589;SHT31;56792;50.644;17.984;2022-12-29T08:45:15;7.07;64.35
69589;SHT31;56792;50.644;17.984;2022-12-29T08:47:48;7.08;64.39
69589;SHT31;56792;50.644;17.984;2022-12-29T08:50:22;7.11;64.48
69589;SHT31;56792;50.644;17.984;2022-12-29T08:52:55;7.13;63.84
69589;SHT31;56792;50.644;17.984;2022-12-29T08:55:31;7.17;63.73
69589;SHT31;56792;50.644;17.984;2022-12-29T08:58:04;7.24;63.72
69589;SHT31;56792;50.644;17.984;2022-12-29T09:00:42;7.32;63.36
69589;SHT31;56792;50.644;17.984;2022-12-29T09:03:15;7.36;63.16
69589;SHT31;56792;50.644;17.984;2022-12-29T09:05:49;7.39;63.31
69589;SHT31;56792;50.644;17.984;2022-12-29T09:08:23;7.41;63.10
69589;SHT31;56792;50.644;17.984;2022-12-29T09:10:57;7.38;63.27
69589;SHT31;56792;50.644;17.984;2022-12-29T09:13:39;7.32;63.59
69589;SHT31;56792;50.644;17.984;2022-12-29T09:16:12;7.28;63.70
69589;SHT31;56792;50.644;17.984;2022-12-29T09:18:46;7.22;63.84
69589;SHT31;56792;50.644;17.984;2022-12-29T09:21:19;7.20;64.04
69589;SHT31;56792;50.644;17.984;2022-12-29T09:23:52;7.21;64.19
69589;SHT31;56792;50.644;17.984;2022-12-29T09:26:25;7.24;64.08
69589;SHT31;56792;50.644;17.984;2022-12-29T09:29:02;7.24;64.03
69589;SHT31;56792;50.644;17.984;2022-12-29T09:31:37;7.28;64.39
69589;SHT31;56792;50.644;17.984;2022-12-29T09:34:16;7.32;64.29
69589;SHT31;56792;50.644;17.984;2022-12-29T09:36:51;7.33;63.98
69589;SHT31;56792;50.644;17.984;2022-12-29T09:39:25;7.35;64.02
69589;SHT31;56792;50.644;17.984;2022-12-29T09:42:00;7.39;64.09
69589;SHT31;56792;50.644;17.984;2022-12-29T09:44:46;7.44;63.76
69589;SHT31;56792;50.644;17.984;2022-12-29T09:47:33;7.45;63.82
69589;SHT31;56792;50.644;17.984;2022-12-29T09:50:12;7.48;63.91
69589;SHT31;56792;50.644;17.984;2022-12-29T09:52:52;7.53;63.76
69589;SHT31;56792;50.644;17.984;2022-12-29T09:55:34;7.55;63.70
69589;SHT31;56792;50.644;17.984;2022-12-29T09:58:13;7.62;63.91
69589;SHT31;56792;50.644;17.984;2022-12-29T10:00:54;7.78;63.53
69589;SHT31;56792;50.644;17.984;2022-12-29T10:03:36;7.97;63.11
69589;SHT31;56792;50.644;17.984;2022-12-29T10:06:19;8.13;62.55
69589;SHT31;56792;50.644;17.984;2022-12-29T10:09:02;8.37;62.50
69589;SHT31;56792;50.644;17.984;2022-12-29T10:11:54;8.61;62.26
69589;SHT31;56792;50.644;17.984;2022-12-29T10:14:44;8.78;61.48
69589;SHT31;56792;50.644;17.984;2022-12-29T10:17:34;8.88;61.62
69589;SHT31;56792;50.644;17.984;2022-12-29T10:20:18;8.95;61.26
69589;SHT31;56792;50.644;17.984;2022-12-29T10:23:08;8.90;61.33
69589;SHT31;56792;50.644;17.984;2022-12-29T10:25:57;8.81;61.31
69589;SHT31;56792;50.644;17.984;2022-12-29T10:28:35;8.74;61.26
69589;SHT31;56792;50.644;17.984;2022-12-29T10:31:15;8.65;61.80
69589;SHT31;56792;50.644;17.984;2022-12-29T10:33:53;8.60;62.10
69589;SHT31;56792;50.644;17.984;2022-12-29T10:36:33;8.53;62.30
69589;SHT31;56792;50.644;17.984;2022-12-29T10:39:13;8.39;62.36
69589;SHT31;56792;50.644;17.984;2022-12-29T10:41:53;8.31;62.90
69589;SHT31;56792;50.644;17.984;2022-12-29T10:44:38;8.23;62.97
69589;SHT31;56792;50.644;17.984;2022-12-29T10:47:12;8.19;63.21
69589;SHT31;56792;50.644;17.984;2022-12-29T10:49:51;8.24;63.34
69589;SHT31;56792;50.644;17.984;2022-12-29T10:52:25;8.26;63.21
69589;SHT31;56792;50.644;17.984;2022-12-29T10:54:59;8.25;63.10
69589;SHT31;56792;50.644;17.984;2022-12-29T10:57:41;8.25;63.10
69589;SHT31;56792;50.644;17.984;2022-12-29T11:00:19;8.25;63.05
69589;SHT31;56792;50.644;17.984;2022-12-29T11:03:05;8.23;63.14
69589;SHT31;56792;50.644;17.984;2022-12-29T11:06:09;8.21;63.35
69589;SHT31;56792;50.644;17.984;2022-12-29T11:08:48;8.23;63.54
69589;SHT31;56792;50.644;17.984;2022-12-29T11:11:27;8.21;63.52
69589;SHT31;56792;50.644;17.984;2022-12-29T11:14:10;8.21;63.77
69589;SHT31;56792;50.644;17.984;2022-12-29T11:16:47;8.20;63.79
69589;SHT31;56792;50.644;17.984;2022-12-29T11:19:30;8.21;63.93
69589;SHT31;56792;50.644;17.984;2022-12-29T11:22:14;8.22;63.76
69589;SHT31;56792;50.644;17.984;2022-12-29T11:24:53;8.27;63.72
69589;SHT31;56792;50.644;17.984;2022-12-29T11:27:45;8.40;63.46
69589;SHT31;56792;50.644;17.984;2022-12-29T11:30:31;8.49;63.25
69589;SHT31;56792;50.644;17.984;2022-12-29T11:33:04;8.52;63.20
69589;SHT31;56792;50.644;17.984;2022-12-29T11:35:39;8.54;63.36
69589;SHT31;56792;50.644;17.984;2022-12-29T11:38:19;8.51;63.50
69589;SHT31;56792;50.644;17.984;2022-12-29T11:40:59;8.45;63.15
69589;SHT31;56792;50.644;17.984;2022-12-29T11:43:33;8.44;63.62
69589;SHT31;56792;50.644;17.984;2022-12-29T11:46:14;8.48;63.39
69589;SHT31;56792;50.644;17.984;2022-12-29T11:48:51;8.52;63.09
69589;SHT31;56792;50.644;17.984;2022-12-29T11:51:27;8.58;62.80
69589;SHT31;56792;50.644;17.984;2022-12-29T11:54:09;8.61;62.92
69589;SHT31;56792;50.644;17.984;2022-12-29T11:56:50;8.68;63.16
69589;SHT31;56792;50.644;17.984;2022-12-29T11:59:39;8.81;62.63
69589;SHT31;56792;50.644;17.984;2022-12-29T12:02:24;9.38;61.59
69589;SHT31;56792;50.644;17.984;2022-12-29T12:05:11;9.69;59.84
69589;SHT31;56792;50.644;17.984;2022-12-29T12:07:55;9.69;60.03
69589;SHT31;56792;50.644;17.984;2022-12-29T12:10:36;9.82;59.82
69589;SHT31;56792;50.644;17.984;2022-12-29T12:13:19;9.80;59.40
69589;SHT31;56792;50.644;17.984;2022-12-29T12:16:02;9.70;59.63
69589;SHT31;56792;50.644;17.984;2022-12-29T12:18:44;9.55;59.84
69589;SHT31;56792;50.644;17.984;2022-12-29T12:21:23;9.39;60.43
69589;SHT31;56792;50.644;17.984;2022-12-29T12:24:11;9.28;60.72
69589;SHT31;56792;50.644;17.984;2022-12-29T12:27:06;9.18;61.18
69589;SHT31;56792;50.644;17.984;2022-12-29T12:29:55;9.10;61.47
69589;SHT31;56792;50.644;17.984;2022-12-29T12:32:35;9.03;61.71
69589;SHT31;56792;50.644;17.984;2022-12-29T12:35:21;8.95;61.92
69589;SHT31;56792;50.644;17.984;2022-12-29T12:38:12;8.85;62.30
69589;SHT31;56792;50.644;17.984;2022-12-29T12:41:02;8.78;62.55
69589;SHT31;56792;50.644;17.984;2022-12-29T12:43:43;8.73;62.89
69589;SHT31;56792;50.644;17.984;2022-12-29T12:49:56;8.73;62.85
69589;SHT31;56792;50.644;17.984;2022-12-29T12:59:24;8.47;63.58
69589;SHT31;56792;50.644;17.984;2022-12-29T13:02:15;8.38;64.00
69589;SHT31;56792;50.644;17.984;2022-12-29T13:11:28;8.23;64.64
69589;SHT31;56792;50.644;17.984;2022-12-29T13:14:22;8.20;64.93
69589;SHT31;56792;50.644;17.984;2022-12-29T13:17:12;8.13;65.21
69589;SHT31;56792;50.644;17.984;2022-12-29T13:19:55;8.06;65.42
69589;SHT31;56792;50.644;17.984;2022-12-29T13:22:47;8.00;65.64
69589;SHT31;56792;50.644;17.984;2022-12-29T13:25:32;7.97;65.98
69589;SHT31;56792;50.644;17.984;2022-12-29T13:28:16;7.91;66.32
69589;SHT31;56792;50.644;17.984;2022-12-29T13:31:04;7.87;66.52
69589;SHT31;56792;50.644;17.984;2022-12-29T13:33:47;7.86;66.75
69589;SHT31;56792;50.644;17.984;2022-12-29T13:36:32;7.84;66.95
69589;SHT31;56792;50.644;17.984;2022-12-29T13:39:11;7.85;67.31
69589;SHT31;56792;50.644;17.984;2022-12-29T13:41:50;7.86;67.49
69589;SHT31;56792;50.644;17.984;2022-12-29T13:44:25;7.87;67.61
69589;SHT31;56792;50.644;17.984;2022-12-29T13:47:04;7.90;67.63
69589;SHT31;56792;50.644;17.984;2022-12-29T13:49:49;7.92;67.70
69589;SHT31;56792;50.644;17.984;2022-12-29T13:52:27;7.91;67.66
69589;SHT31;56792;50.644;17.984;2022-12-29T13:55:17;7.91;67.62
69589;SHT31;56792;50.644;17.984;2022-12-29T13:58:00;7.86;67.70
69589;SHT31;56792;50.644;17.984;2022-12-29T14:00:46;7.84;67.87
69589;SHT31;56792;50.644;17.984;2022-12-29T14:03:46;7.80;67.96
69589;SHT31;56792;50.644;17.984;2022-12-29T14:06:23;7.76;68.07
69589;SHT31;56792;50.644;17.984;2022-12-29T14:08:58;7.72;68.04
69589;SHT31;56792;50.644;17.984;2022-12-29T14:11:34;7.69;68.16
69589;SHT31;56792;50.644;17.984;2022-12-29T14:14:16;7.65;68.02
69589;SHT31;56792;50.644;17.984;2022-12-29T14:16:53;7.64;67.96
69589;SHT31;56792;50.644;17.984;2022-12-29T14:19:39;7.57;68.03
69589;SHT31;56792;50.644;17.984;2022-12-29T14:22:15;7.53;67.97
69589;SHT31;56792;50.644;17.984;2022-12-29T14:24:56;7.50;68.05
69589;SHT31;56792;50.644;17.984;2022-12-29T14:27:50;7.47;68.07
69589;SHT31;56792;50.644;17.984;2022-12-29T14:33:22;7.41;68.24
69589;SHT31;56792;50.644;17.984;2022-12-29T14:35:57;7.38;68.29
69589;SHT31;56792;50.644;17.984;2022-12-29T14:38:54;7.36;68.27
69589;SHT31;56792;50.644;17.984;2022-12-29T14:41:28;7.34;68.24
69589;SHT31;56792;50.644;17.984;2022-12-29T14:44:09;7.34;68.30
69589;SHT31;56792;50.644;17.984;2022-12-29T14:46:54;7.32;68.23
69589;SHT31;56792;50.644;17.984;2022-12-29T14:49:33;7.29;68.31
69589;SHT31;56792;50.644;17.984;2022-12-29T14:52:18;7.26;68.38
69589;SHT31;56792;50.644;17.984;2022-12-29T14:54:55;7.23;68.45
69589;SHT31;56792;50.644;17.984;2022-12-29T14:57:49;7.21;68.43
69589;SHT31;56792;50.644;17.984;2022-12-29T15:00:29;7.18;68.53
69589;SHT31;56792;50.644;17.984;2022-12-29T15:03:05;7.18;68.49
69589;SHT31;56792;50.644;17.984;2022-12-29T15:05:45;7.16;68.34
69589;SHT31;56792;50.644;17.984;2022-12-29T15:08:24;7.15;68.24
69589;SHT31;56792;50.644;17.984;2022-12-29T15:11:06;7.17;68.24
69589;SHT31;56792;50.644;17.984;2022-12-29T15:13:45;7.17;68.19
69589;SHT31;56792;50.644;17.984;2022-12-29T15:16:25;7.16;68.07
69589;SHT31;56792;50.644;17.984;2022-12-29T15:19:00;7.16;68.00
69589;SHT31;56792;50.644;17.984;2022-12-29T15:21:49;7.16;67.97
69589;SHT31;56792;50.644;17.984;2022-12-29T15:24:23;7.14;67.99
69589;SHT31;56792;50.644;17.984;2022-12-29T15:26:55;7.12;67.85
69589;SHT31;56792;50.644;17.984;2022-12-29T15:29:36;7.12;67.82
69589;SHT31;56792;50.644;17.984;2022-12-29T15:35:21;7.07;68.00
69589;SHT31;56792;50.644;17.984;2022-12-29T15:38:11;7.06;68.00
69589;SHT31;56792;50.644;17.984;2022-12-29T15:40:53;7.05;68.02
69589;SHT31;56792;50.644;17.984;2022-12-29T15:43:36;7.05;68.05
69589;SHT31;56792;50.644;17.984;2022-12-29T15:46:22;7.05;68.10
69589;SHT31;56792;50.644;17.984;2022-12-29T15:48:54;7.06;68.05
69589;SHT31;56792;50.644;17.984;2022-12-29T15:51:28;7.06;68.09
69589;SHT31;56792;50.644;17.984;2022-12-29T15:54:05;7.05;68.18
69589;SHT31;56792;50.644;17.984;2022-12-29T15:56:46;7.05;68.16
69589;SHT31;56792;50.644;17.984;2022-12-29T15:59:27;7.07;68.12
69589;SHT31;56792;50.644;17.984;2022-12-29T16:02:02;7.09;68.15
69589;SHT31;56792;50.644;17.984;2022-12-29T16:04:40;7.10;68.26
69589;SHT31;56792;50.644;17.984;2022-12-29T16:07:25;7.09;68.30
69589;SHT31;56792;50.644;17.984;2022-12-29T16:10:02;7.11;68.32
69589;SHT31;56792;50.644;17.984;2022-12-29T16:13:10;7.11;68.09
69589;SHT31;56792;50.644;17.984;2022-12-29T16:15:55;7.09;68.13
69589;SHT31;56792;50.644;17.984;2022-12-29T16:18:36;7.06;68.09
69589;SHT31;56792;50.644;17.984;2022-12-29T16:21:15;7.03;68.15
69589;SHT31;56792;50.644;17.984;2022-12-29T16:23:52;6.96;68.32
69589;SHT31;56792;50.644;17.984;2022-12-29T16:26:34;6.93;68.44
69589;SHT31;56792;50.644;17.984;2022-12-29T16:29:07;6.88;68.56
69589;SHT31;56792;50.644;17.984;2022-12-29T16:31:49;6.85;68.74
69589;SHT31;56792;50.644;17.984;2022-12-29T16:34:30;6.81;68.84
69589;SHT31;56792;50.644;17.984;2022-12-29T16:37:24;6.85;69.21
69589;SHT31;56792;50.644;17.984;2022-12-29T16:42:59;6.81;68.88
69589;SHT31;56792;50.644;17.984;2022-12-29T16:48:54;6.76;68.99
69589;SHT31;56792;50.644;17.984;2022-12-29T16:51:31;6.72;69.10
69589;SHT31;56792;50.644;17.984;2022-12-29T16:54:13;6.68;69.22
69589;SHT31;56792;50.644;17.984;2022-12-29T16:56:53;6.64;69.29
69589;SHT31;56792;50.644;17.984;2022-12-29T16:59:29;6.61;69.33
69589;SHT31;56792;50.644;17.984;2022-12-29T17:02:07;6.59;69.45
69589;SHT31;56792;50.644;17.984;2022-12-29T17:04:47;6.56;69.50
69589;SHT31;56792;50.644;17.984;2022-12-29T17:07:20;6.53;69.56
69589;SHT31;56792;50.644;17.984;2022-12-29T17:09:55;6.51;69.70
69589;SHT31;56792;50.644;17.984;2022-12-29T17:12:28;6.48;69.81
69589;SHT31;56792;50.644;17.984;2022-12-29T17:15:05;6.45;69.87
69589;SHT31;56792;50.644;17.984;2022-12-29T17:17:49;6.43;69.93